Decoded Metar for LFKS (SOLENZARA in CORSE ISL.) (IATA:SOZ) | Meteo·Mobile Aviation Weather
aviador You're here:

LFKS Decoded Metar

SOLENZARA in CORSE ISL.
Report Time2019-04-20 10:30:00
UTC Time2019-04-20 10:43:21
Flight Rules unknown UNKNOWN
Wind050° at 10 kt
W.Decomp.*RWY 36: 6.7 kt HW 7.4 kt RCW
VisibilityN/A
Phenomena:N/A
Clouds:N/A
Expected CloudBase > 2,000 ft AGL from Temp-Dew spread
CeilingNone
Temp18°C (ISA +3)
Dew Point13°C (73% RH)
AAT15.4°C
QNH1024 hPa
Density Alt272 ft
Elevation72 ft
Report Wrong Elevation
Raw Report
METAR LFKS 201030Z AUTO 05010KT //// // NSC 18/13 Q1024=

Extra information for LFKS:More info

Metar Taf Metar & Taf Last 4 Metars F.Rules Stats Wind Profile Meteogram Temp Stats Airport Information Weather charts Add Link Nearby VenuesMetar ALERT Operation Metar Decoded Social comments